Time;durP1;ratioP1;P1;durP2;ratioP2;P2;SDS_P1;SDS_P2;PMS_P1;PMS_P2;Temp;Humidity;BMP_temperature;BMP_pressure;BME280_temperature;BME280_humidity;BME280_pressure;Samples;Min_cycle;Max_cycle;Signal;HPM_P1;HPM_P2
2021/10/24 00:00:18;;;;;;;11.82;9.77;;;;;;;;;;5127929;27;20192;-79
2021/10/24 00:02:46;;;;;;;11.40;7.68;;;;;;;;;;5134962;27;20749;-80
2021/10/24 00:05:14;;;;;;;12.90;8.77;;;;;;;;;;5102676;28;20207;-79
2021/10/24 00:07:42;;;;;;;12.45;9.00;;;;;;;;;;5100902;28;20258;-78
2021/10/24 00:10:10;;;;;;;12.05;8.15;;;;;;;;;;5097276;27;20192;-80
2021/10/24 00:12:37;;;;;;;11.02;8.38;;;;;;;;;;5109241;27;20192;-78
2021/10/24 00:15:05;;;;;;;9.60;8.35;;;;;;;;;;5109018;27;20692;-80
2021/10/24 00:17:32;;;;;;;10.88;8.57;;;;;;;;;;5128975;27;20199;-81
2021/10/24 00:19:59;;;;;;;10.98;8.35;;;;;;;;;;5110769;28;20278;-80
2021/10/24 00:22:26;;;;;;;10.15;8.50;;;;;;;;;;5103815;27;20729;-78
2021/10/24 00:24:55;;;;;;;16.33;8.90;;;;;;;;;;5093875;28;20292;-79
2021/10/24 00:27:23;;;;;;;13.70;8.18;;;;;;;;;;5104830;27;20279;-81
2021/10/24 00:29:50;;;;;;;10.20;8.63;;;;;;;;;;5120631;27;20232;-80
2021/10/24 00:32:17;;;;;;;9.30;8.32;;;;;;;;;;5113250;28;20189;-80
2021/10/24 00:34:45;;;;;;;14.40;8.70;;;;;;;;;;5113703;28;20235;-80
2021/10/24 00:37:12;;;;;;;11.07;8.32;;;;;;;;;;5115164;28;20195;-78
2021/10/24 00:39:39;;;;;;;12.38;9.55;;;;;;;;;;5115065;28;20669;-79
2021/10/24 00:42:08;;;;;;;12.20;9.52;;;;;;;;;;5106915;28;20213;-79
2021/10/24 00:44:35;;;;;;;13.68;9.40;;;;;;;;;;5102876;28;20205;-80
2021/10/24 00:47:04;;;;;;;12.80;9.77;;;;;;;;;;5106419;27;20192;-78
2021/10/24 00:49:32;;;;;;;16.15;9.48;;;;;;;;;;5113580;27;20351;-79
2021/10/24 00:51:59;;;;;;;11.98;9.35;;;;;;;;;;5119893;27;20223;-79
2021/10/24 00:54:27;;;;;;;14.25;11.00;;;;;;;;;;5127820;27;20238;-79
2021/10/24 00:56:55;;;;;;;16.80;9.57;;;;;;;;;;5112497;27;20252;-78
2021/10/24 00:59:24;;;;;;;14.00;9.93;;;;;;;;;;5102382;27;20193;-78
2021/10/24 01:01:52;;;;;;;15.38;10.32;;;;;;;;;;5109200;28;20201;-79
2021/10/24 01:04:19;;;;;;;13.93;10.80;;;;;;;;;;5109079;27;20224;-80
2021/10/24 01:06:49;;;;;;;12.95;10.05;;;;;;;;;;5106322;27;20201;-81
2021/10/24 01:09:18;;;;;;;13.88;10.27;;;;;;;;;;5115530;27;20188;-80
2021/10/24 01:11:47;;;;;;;14.27;10.90;;;;;;;;;;5120165;27;20201;-79
2021/10/24 01:14:14;;;;;;;16.15;10.63;;;;;;;;;;5114675;28;20248;-80
2021/10/24 01:16:43;;;;;;;16.40;9.90;;;;;;;;;;5111438;27;20216;-79
2021/10/24 01:19:12;;;;;;;16.80;10.52;;;;;;;;;;5105574;27;20199;-79
2021/10/24 01:21:41;;;;;;;14.77;10.32;;;;;;;;;;5100623;28;20201;-80
2021/10/24 01:24:08;;;;;;;12.25;9.50;;;;;;;;;;5106328;28;20216;-78
2021/10/24 01:26:36;;;;;;;14.10;9.73;;;;;;;;;;5107326;27;20200;-78
2021/10/24 01:29:03;;;;;;;16.70;10.00;;;;;;;;;;5111082;28;20654;-80
2021/10/24 01:31:30;;;;;;;15.77;11.00;;;;;;;;;;5111757;28;20641;-80
2021/10/24 01:33:58;;;;;;;12.90;9.65;;;;;;;;;;5109592;27;20572;-80
2021/10/24 01:36:25;;;;;;;12.98;9.65;;;;;;;;;;5105230;27;20224;-80
2021/10/24 01:38:53;;;;;;;12.25;9.60;;;;;;;;;;5099144;27;20220;-79
2021/10/24 01:41:23;;;;;;;11.48;9.52;;;;;;;;;;5117238;27;20199;-79
2021/10/24 01:43:50;;;;;;;14.25;9.55;;;;;;;;;;5112515;27;20299;-79
2021/10/24 01:46:18;;;;;;;12.77;9.50;;;;;;;;;;5123418;27;20223;-78
2021/10/24 01:48:45;;;;;;;12.95;10.13;;;;;;;;;;5132678;27;20203;-77
2021/10/24 01:51:13;;;;;;;11.82;10.20;;;;;;;;;;5122568;27;20192;-80
2021/10/24 01:53:41;;;;;;;12.18;10.02;;;;;;;;;;5115714;27;20225;-79
2021/10/24 01:56:09;;;;;;;19.40;9.23;;;;;;;;;;5098724;28;20224;-80
2021/10/24 01:58:37;;;;;;;13.68;9.35;;;;;;;;;;5110484;28;20569;-79
2021/10/24 02:01:05;;;;;;;13.10;9.82;;;;;;;;;;5108955;28;20196;-78
2021/10/24 02:03:33;;;;;;;13.48;9.82;;;;;;;;;;5105276;27;20212;-79
2021/10/24 02:06:00;;;;;;;11.23;9.23;;;;;;;;;;5131219;27;20560;-79
2021/10/24 02:08:27;;;;;;;10.43;8.70;;;;;;;;;;5116612;27;20201;-81
2021/10/24 02:10:54;;;;;;;14.60;9.68;;;;;;;;;;5124599;27;20204;-78
2021/10/24 02:13:23;;;;;;;13.60;10.30;;;;;;;;;;5133884;27;20223;-79
2021/10/24 02:15:50;;;;;;;10.75;8.85;;;;;;;;;;5114524;27;21035;-80
2021/10/24 02:18:18;;;;;;;11.27;9.30;;;;;;;;;;5102485;28;20653;-80
2021/10/24 02:20:45;;;;;;;13.52;9.27;;;;;;;;;;5106583;28;20201;-79
2021/10/24 02:23:12;;;;;;;12.68;8.88;;;;;;;;;;5125500;27;20226;-80
2021/10/24 02:25:40;;;;;;;16.30;9.30;;;;;;;;;;5131137;27;20200;-78
2021/10/24 02:28:07;;;;;;;10.90;8.73;;;;;;;;;;5115567;27;20555;-79
2021/10/24 02:30:36;;;;;;;15.20;9.30;;;;;;;;;;5113591;27;20201;-77
2021/10/24 02:33:04;;;;;;;12.70;9.10;;;;;;;;;;5099474;28;20289;-79
2021/10/24 02:35:31;;;;;;;11.35;9.50;;;;;;;;;;5106319;27;20537;-78
2021/10/24 02:37:58;;;;;;;12.30;9.23;;;;;;;;;;5110744;28;20204;-77
2021/10/24 02:40:25;;;;;;;15.27;9.23;;;;;;;;;;5117540;27;20188;-77
2021/10/24 02:42:54;;;;;;;12.05;8.32;;;;;;;;;;5129050;27;20220;-77
2021/10/24 02:45:21;;;;;;;13.85;8.63;;;;;;;;;;5121930;27;20200;-78
2021/10/24 02:47:50;;;;;;;13.13;8.98;;;;;;;;;;5114559;27;20621;-78
2021/10/24 02:50:18;;;;;;;15.23;10.93;;;;;;;;;;5120714;27;20279;-78
2021/10/24 02:52:45;;;;;;;15.52;9.55;;;;;;;;;;5106428;28;20223;-77
2021/10/24 02:55:13;;;;;;;12.32;8.63;;;;;;;;;;5100125;28;20221;-78
2021/10/24 02:57:40;;;;;;;12.90;8.68;;;;;;;;;;5096457;28;20708;-78
2021/10/24 03:00:09;;;;;;;9.45;8.05;;;;;;;;;;5128813;28;20199;-77
2021/10/24 03:02:37;;;;;;;16.13;9.57;;;;;;;;;;5129816;28;20196;-78
2021/10/24 03:05:06;;;;;;;12.68;9.23;;;;;;;;;;5130833;28;20192;-79
2021/10/24 03:07:33;;;;;;;12.73;9.52;;;;;;;;;;5117893;28;20628;-77
2021/10/24 03:10:01;;;;;;;15.00;9.38;;;;;;;;;;5111558;28;20203;-77
2021/10/24 03:12:28;;;;;;;12.95;8.90;;;;;;;;;;5107113;28;20234;-77
2021/10/24 03:14:55;;;;;;;12.20;9.77;;;;;;;;;;5102405;28;20189;-78
2021/10/24 03:17:23;;;;;;;14.27;9.57;;;;;;;;;;5099842;28;20212;-78
2021/10/24 03:19:50;;;;;;;14.60;9.35;;;;;;;;;;5105113;28;20204;-77
2021/10/24 03:22:18;;;;;;;20.05;9.93;;;;;;;;;;5110278;28;20562;-78
2021/10/24 03:24:46;;;;;;;12.07;9.05;;;;;;;;;;5110172;28;20233;-77
2021/10/24 03:27:13;;;;;;;13.98;8.23;;;;;;;;;;5104553;28;20669;-77
2021/10/24 03:29:40;;;;;;;12.27;9.63;;;;;;;;;;5098531;28;20205;-78
2021/10/24 03:32:08;;;;;;;13.93;9.40;;;;;;;;;;5097843;28;20199;-78
2021/10/24 03:34:35;;;;;;;13.75;9.40;;;;;;;;;;5104939;28;20427;-77
2021/10/24 03:37:02;;;;;;;20.70;9.55;;;;;;;;;;5109799;28;20224;-78
2021/10/24 03:39:30;;;;;;;15.45;8.68;;;;;;;;;;5124772;28;20199;-77
2021/10/24 03:41:58;;;;;;;12.55;10.10;;;;;;;;;;5130522;28;20302;-78
2021/10/24 03:44:25;;;;;;;12.30;9.20;;;;;;;;;;5112441;28;20266;-78
2021/10/24 03:46:53;;;;;;;14.00;9.95;;;;;;;;;;5101935;28;20181;-78
2021/10/24 03:49:20;;;;;;;13.27;10.00;;;;;;;;;;5099188;28;20190;-78
2021/10/24 03:51:47;;;;;;;11.65;9.00;;;;;;;;;;5088809;28;20205;-77
2021/10/24 03:54:14;;;;;;;12.90;9.75;;;;;;;;;;5111093;28;20239;-78
2021/10/24 03:56:43;;;;;;;13.32;9.27;;;;;;;;;;5127855;28;20230;-78
2021/10/24 03:59:10;;;;;;;13.13;9.90;;;;;;;;;;5124121;28;20514;-77
2021/10/24 04:01:37;;;;;;;17.13;10.05;;;;;;;;;;5095429;28;20193;-77
2021/10/24 04:04:05;;;;;;;13.95;9.07;;;;;;;;;;5101289;28;20225;-78
2021/10/24 04:06:33;;;;;;;15.60;10.20;;;;;;;;;;5114596;28;20220;-78
2021/10/24 04:09:00;;;;;;;19.73;10.60;;;;;;;;;;5133131;27;20207;-79
2021/10/24 04:11:27;;;;;;;14.50;10.55;;;;;;;;;;5120653;27;20193;-78
2021/10/24 04:13:56;;;;;;;12.77;9.98;;;;;;;;;;5120438;27;20578;-77
2021/10/24 04:16:23;;;;;;;17.13;9.88;;;;;;;;;;5121338;27;20571;-77
2021/10/24 04:18:51;;;;;;;16.77;9.80;;;;;;;;;;5105949;27;20533;-78
2021/10/24 04:21:18;;;;;;;12.15;9.20;;;;;;;;;;5104471;28;20189;-77
2021/10/24 04:23:45;;;;;;;11.90;9.70;;;;;;;;;;5112580;28;20218;-78
2021/10/24 04:26:12;;;;;;;13.32;10.43;;;;;;;;;;5110584;28;20196;-77
2021/10/24 04:28:40;;;;;;;15.70;10.15;;;;;;;;;;5113561;28;20283;-77
2021/10/24 04:31:08;;;;;;;18.35;11.48;;;;;;;;;;5115674;27;20226;-77
2021/10/24 04:33:36;;;;;;;15.48;10.23;;;;;;;;;;5110117;28;20665;-77
2021/10/24 04:36:03;;;;;;;15.90;11.18;;;;;;;;;;5101910;27;20200;-78
2021/10/24 04:38:31;;;;;;;16.15;9.43;;;;;;;;;;5110817;28;20200;-77
2021/10/24 04:40:58;;;;;;;13.20;9.65;;;;;;;;;;5129733;27;20671;-77
2021/10/24 04:43:26;;;;;;;13.20;10.55;;;;;;;;;;5116074;27;20208;-77
2021/10/24 04:45:54;;;;;;;15.50;10.82;;;;;;;;;;5136416;27;20222;-79
2021/10/24 04:48:23;;;;;;;15.30;9.80;;;;;;;;;;5114904;27;20200;-79
2021/10/24 04:50:50;;;;;;;16.40;9.63;;;;;;;;;;5103606;28;20189;-78
2021/10/24 04:53:17;;;;;;;15.98;10.35;;;;;;;;;;5119032;27;20227;-79
2021/10/24 04:55:45;;;;;;;13.02;9.60;;;;;;;;;;5142805;27;20199;-78
2021/10/24 04:58:12;;;;;;;13.70;10.23;;;;;;;;;;5123220;27;20227;-78
2021/10/24 05:00:40;;;;;;;13.43;9.77;;;;;;;;;;5120476;27;20193;-79
2021/10/24 05:03:07;;;;;;;14.05;10.48;;;;;;;;;;5115422;27;20224;-78
2021/10/24 05:05:35;;;;;;;12.48;10.32;;;;;;;;;;5103078;28;20197;-80
2021/10/24 05:08:03;;;;;;;15.15;9.75;;;;;;;;;;5104452;28;20311;-78
2021/10/24 05:10:30;;;;;;;17.40;10.75;;;;;;;;;;5112019;27;20880;-79
2021/10/24 05:12:57;;;;;;;13.05;10.80;;;;;;;;;;5118670;27;20669;-78
2021/10/24 05:15:24;;;;;;;12.73;10.07;;;;;;;;;;5107253;27;20192;-79
2021/10/24 05:17:52;;;;;;;12.60;9.82;;;;;;;;;;5114562;27;20226;-79
2021/10/24 05:20:19;;;;;;;16.02;11.02;;;;;;;;;;5118564;27;20681;-78
2021/10/24 05:22:48;;;;;;;15.25;9.85;;;;;;;;;;5101092;28;20216;-79
2021/10/24 05:25:16;;;;;;;15.90;9.75;;;;;;;;;;5109748;28;20539;-78
2021/10/24 05:27:43;;;;;;;18.10;10.65;;;;;;;;;;5111775;28;20192;-78
2021/10/24 05:30:10;;;;;;;17.38;11.10;;;;;;;;;;5107335;27;20215;-79
2021/10/24 05:32:38;;;;;;;16.15;10.80;;;;;;;;;;5132376;27;20973;-79
2021/10/24 05:35:05;;;;;;;14.48;10.52;;;;;;;;;;5115105;27;20193;-78
2021/10/24 05:37:32;;;;;;;18.42;10.07;;;;;;;;;;5099983;28;21041;-79
2021/10/24 05:40:01;;;;;;;14.38;10.60;;;;;;;;;;5109008;28;20204;-79
2021/10/24 05:42:28;;;;;;;14.93;9.90;;;;;;;;;;5107113;27;20188;-78
2021/10/24 05:44:55;;;;;;;15.45;10.77;;;;;;;;;;5129259;27;20595;-79
2021/10/24 05:47:22;;;;;;;13.00;10.85;;;;;;;;;;5132527;27;20195;-79
2021/10/24 05:49:50;;;;;;;13.20;10.38;;;;;;;;;;5120277;27;20279;-80
2021/10/24 05:52:18;;;;;;;18.73;10.85;;;;;;;;;;5113634;28;20196;-79
2021/10/24 05:54:46;;;;;;;18.17;9.27;;;;;;;;;;5108166;27;20223;-79
2021/10/24 05:57:14;;;;;;;13.57;10.38;;;;;;;;;;5120633;27;20227;-80
2021/10/24 05:59:42;;;;;;;17.63;10.90;;;;;;;;;;5102161;28;20198;-79
2021/10/24 06:02:09;;;;;;;15.55;10.35;;;;;;;;;;5108909;28;20253;-79
2021/10/24 06:04:37;;;;;;;13.57;10.07;;;;;;;;;;5108437;27;20218;-79
2021/10/24 06:07:04;;;;;;;13.40;9.70;;;;;;;;;;5131615;27;20199;-80
2021/10/24 06:09:40;;;;;;;17.88;10.10;;;;;;;;;;5108742;27;20278;-79
2021/10/24 06:12:12;;;;;;;13.18;10.50;;;;;;;;;;5104298;27;20701;-79
2021/10/24 06:14:41;;;;;;;18.88;10.13;;;;;;;;;;5130145;27;20231;-79
2021/10/24 06:17:08;;;;;;;16.02;10.55;;;;;;;;;;5133671;27;20242;-79
2021/10/24 06:19:36;;;;;;;15.02;9.68;;;;;;;;;;5108908;27;20669;-79
2021/10/24 06:22:03;;;;;;;14.98;10.70;;;;;;;;;;5102437;28;20188;-78
2021/10/24 06:24:31;;;;;;;11.05;9.60;;;;;;;;;;5104087;27;20232;-82
2021/10/24 06:26:58;;;;;;;13.85;9.60;;;;;;;;;;5128309;27;20200;-79
2021/10/24 06:29:25;;;;;;;14.32;10.30;;;;;;;;;;5131287;27;20200;-79
2021/10/24 06:31:53;;;;;;;15.38;10.23;;;;;;;;;;5125275;27;20192;-79
2021/10/24 06:34:21;;;;;;;11.82;9.45;;;;;;;;;;5110925;28;20222;-79
2021/10/24 06:36:48;;;;;;;15.70;10.85;;;;;;;;;;5096349;28;20201;-79
2021/10/24 06:39:15;;;;;;;15.45;10.35;;;;;;;;;;5101163;28;20231;-80
2021/10/24 06:41:42;;;;;;;12.95;11.13;;;;;;;;;;5110166;28;20573;-80
2021/10/24 06:44:09;;;;;;;15.05;10.25;;;;;;;;;;5106623;27;20211;-80
2021/10/24 06:46:36;;;;;;;15.95;9.98;;;;;;;;;;5128670;27;20194;-80
2021/10/24 06:49:05;;;;;;;12.85;9.98;;;;;;;;;;5110414;27;20201;-80
2021/10/24 06:51:32;;;;;;;14.40;9.75;;;;;;;;;;5100168;28;20193;-80
2021/10/24 06:53:59;;;;;;;12.80;9.68;;;;;;;;;;5101103;28;20702;-78
2021/10/24 06:56:27;;;;;;;10.77;8.60;;;;;;;;;;5105130;27;20212;-78
2021/10/24 06:58:54;;;;;;;10.30;8.82;;;;;;;;;;5128297;27;20401;-81
2021/10/24 07:01:21;;;;;;;13.25;9.55;;;;;;;;;;5131439;27;20211;-81
2021/10/24 07:03:48;;;;;;;18.05;10.05;;;;;;;;;;5128666;28;20696;-81
2021/10/24 07:06:17;;;;;;;11.50;8.13;;;;;;;;;;5114951;28;20609;-78
2021/10/24 07:08:44;;;;;;;11.00;8.52;;;;;;;;;;5127289;28;20221;-78
2021/10/24 07:11:11;;;;;;;9.85;8.15;;;;;;;;;;5112435;28;20188;-78
2021/10/24 07:13:39;;;;;;;13.27;9.55;;;;;;;;;;5102341;28;20213;-78
2021/10/24 07:16:07;;;;;;;15.48;8.90;;;;;;;;;;5102517;28;20272;-79
2021/10/24 07:18:34;;;;;;;10.20;7.97;;;;;;;;;;5109370;28;20713;-79
2021/10/24 07:21:01;;;;;;;11.68;9.18;;;;;;;;;;5110376;28;20254;-77
2021/10/24 07:23:30;;;;;;;10.25;7.95;;;;;;;;;;5110220;28;20709;-81
2021/10/24 07:25:57;;;;;;;8.73;7.45;;;;;;;;;;5110683;28;20200;-80
2021/10/24 07:28:24;;;;;;;12.60;7.53;;;;;;;;;;5110400;28;20196;-77
2021/10/24 07:30:53;;;;;;;10.02;7.57;;;;;;;;;;5119495;28;20198;-80
2021/10/24 07:33:20;;;;;;;9.65;7.85;;;;;;;;;;5119054;28;20219;-80
2021/10/24 07:35:47;;;;;;;9.88;7.97;;;;;;;;;;5102383;28;20197;-79
2021/10/24 07:38:15;;;;;;;13.02;8.13;;;;;;;;;;5102562;28;20236;-79
2021/10/24 07:40:46;;;;;;;9.85;7.72;;;;;;;;;;5110959;27;20200;-77
2021/10/24 07:43:13;;;;;;;15.45;7.25;;;;;;;;;;5109067;28;20217;-78
2021/10/24 07:45:40;;;;;;;13.13;8.02;;;;;;;;;;5113717;28;20199;-78
2021/10/24 07:48:07;;;;;;;8.98;6.38;;;;;;;;;;5124688;27;20561;-78
2021/10/24 07:50:35;;;;;;;11.77;7.50;;;;;;;;;;5121130;27;20201;-80
2021/10/24 07:53:03;;;;;;;8.73;6.93;;;;;;;;;;5112250;27;20216;-80
2021/10/24 07:55:30;;;;;;;7.97;6.97;;;;;;;;;;5107344;28;20553;-80
2021/10/24 07:57:59;;;;;;;13.77;7.43;;;;;;;;;;5105904;27;20216;-81
2021/10/24 08:00:26;;;;;;;9.82;7.38;;;;;;;;;;5132883;27;20199;-78
2021/10/24 08:02:53;;;;;;;13.45;7.30;;;;;;;;;;5134102;27;20711;-80
2021/10/24 08:05:21;;;;;;;9.00;6.20;;;;;;;;;;5129041;27;20192;-79
2021/10/24 08:07:48;;;;;;;14.60;7.00;;;;;;;;;;5129339;27;20579;-80
2021/10/24 08:10:16;;;;;;;9.10;6.38;;;;;;;;;;5108749;27;20200;-78
2021/10/24 08:12:43;;;;;;;8.10;6.50;;;;;;;;;;5100536;27;20220;-83
2021/10/24 08:15:13;;;;;;;9.48;6.20;;;;;;;;;;5110943;27;20569;-82
2021/10/24 08:17:41;;;;;;;9.07;5.85;;;;;;;;;;5112045;28;20212;-80
2021/10/24 08:20:09;;;;;;;9.63;6.47;;;;;;;;;;5117338;27;20196;-83
2021/10/24 08:22:36;;;;;;;8.13;5.82;;;;;;;;;;5134320;27;20884;-80
2021/10/24 08:25:03;;;;;;;8.50;6.22;;;;;;;;;;5114745;27;20200;-82
2021/10/24 08:27:31;;;;;;;10.45;6.68;;;;;;;;;;5106671;28;20199;-82
2021/10/24 08:29:59;;;;;;;7.13;5.68;;;;;;;;;;5110962;28;20475;-85
2021/10/24 08:32:27;;;;;;;7.00;5.40;;;;;;;;;;5107110;27;20953;-85
2021/10/24 08:34:54;;;;;;;11.25;5.60;;;;;;;;;;5131179;27;20442;-82
2021/10/24 08:37:22;;;;;;;6.43;5.82;;;;;;;;;;5133318;27;20199;-79
2021/10/24 08:39:52;;;;;;;10.88;5.90;;;;;;;;;;5109044;27;20665;-82
2021/10/24 08:42:22;;;;;;;6.10;5.20;;;;;;;;;;5098378;27;20190;-82
2021/10/24 08:44:49;;;;;;;8.55;5.82;;;;;;;;;;5094517;28;20204;-79
2021/10/24 08:47:18;;;;;;;6.50;5.00;;;;;;;;;;5093901;27;20201;-79
2021/10/24 08:49:46;;;;;;;5.47;4.97;;;;;;;;;;5124421;27;20916;-79
2021/10/24 08:52:13;;;;;;;6.50;5.40;;;;;;;;;;5108607;27;20457;-79
2021/10/24 08:54:43;;;;;;;6.60;5.60;;;;;;;;;;5107229;27;20494;-83
2021/10/24 08:57:10;;;;;;;10.37;5.47;;;;;;;;;;5102595;28;20509;-84
2021/10/24 08:59:38;;;;;;;7.70;5.87;;;;;;;;;;5108144;27;21027;-83
2021/10/24 09:02:06;;;;;;;9.88;5.90;;;;;;;;;;5127170;27;20453;-78
2021/10/24 09:04:35;;;;;;;8.00;5.22;;;;;;;;;;5123187;27;20213;-82
2021/10/24 09:07:04;;;;;;;6.10;4.90;;;;;;;;;;5119350;27;20245;-82
2021/10/24 09:09:32;;;;;;;7.23;4.93;;;;;;;;;;5121447;27;20540;-79
2021/10/24 09:12:00;;;;;;;8.00;5.47;;;;;;;;;;5117449;27;20911;-79
2021/10/24 09:14:42;;;;;;;8.57;4.80;;;;;;;;;;5113945;27;20520;-79
2021/10/24 09:17:10;;;;;;;6.13;4.80;;;;;;;;;;5102177;27;20462;-82
2021/10/24 09:19:38;;;;;;;6.37;4.80;;;;;;;;;;5102640;28;20466;-84
2021/10/24 09:22:14;;;;;;;7.10;4.70;;;;;;;;;;5093219;28;20807;-81
2021/10/24 09:24:59;;;;;;;7.13;4.87;;;;;;;;;;5118199;27;20488;-81
2021/10/24 09:27:26;;;;;;;8.10;4.37;;;;;;;;;;5129431;27;20816;-83
2021/10/24 09:29:54;;;;;;;6.60;4.53;;;;;;;;;;5121421;27;20461;-79
2021/10/24 09:32:21;;;;;;;8.73;4.80;;;;;;;;;;5117151;27;20469;-84
2021/10/24 09:35:01;;;;;;;6.40;5.20;;;;;;;;;;5114879;27;20451;-83
2021/10/24 09:37:30;;;;;;;9.10;4.73;;;;;;;;;;5133805;27;20524;-82
2021/10/24 09:39:57;;;;;;;5.90;4.20;;;;;;;;;;5114310;27;20478;-81
2021/10/24 09:42:26;;;;;;;5.77;4.63;;;;;;;;;;5103107;28;20443;-82
2021/10/24 09:45:04;;;;;;;6.73;4.67;;;;;;;;;;5111474;28;20439;-79
2021/10/24 09:47:32;;;;;;;7.40;4.40;;;;;;;;;;5104617;27;20829;-79
2021/10/24 09:49:59;;;;;;;6.47;4.40;;;;;;;;;;5121933;27;20819;-86
2021/10/24 09:52:27;;;;;;;10.20;4.10;;;;;;;;;;5132801;27;20438;-85
2021/10/24 09:54:56;;;;;;;7.70;4.83;;;;;;;;;;5111945;27;20842;-81
2021/10/24 09:57:25;;;;;;;5.73;4.40;;;;;;;;;;5100420;27;20449;-83
2021/10/24 09:59:54;;;;;;;7.93;4.37;;;;;;;;;;5099288;28;20467;-83
2021/10/24 10:02:21;;;;;;;5.97;3.90;;;;;;;;;;5106975;27;20462;-82
2021/10/24 10:04:49;;;;;;;7.33;4.90;;;;;;;;;;5131684;27;20477;-82
2021/10/24 10:07:16;;;;;;;8.53;4.27;;;;;;;;;;5125772;27;20462;-87
2021/10/24 10:09:44;;;;;;;4.33;3.50;;;;;;;;;;5119770;27;20511;-84
2021/10/24 10:12:13;;;;;;;8.43;4.20;;;;;;;;;;5108184;27;20462;-85
2021/10/24 10:14:42;;;;;;;5.03;4.03;;;;;;;;;;5100718;27;20482;-87
2021/10/24 10:17:10;;;;;;;4.30;3.60;;;;;;;;;;5107991;28;20445;-81
2021/10/24 10:19:52;;;;;;;4.80;3.93;;;;;;;;;;5109660;28;20488;-85
2021/10/24 10:22:28;;;;;;;7.00;3.90;;;;;;;;;;5129808;27;20771;-85
2021/10/24 10:24:56;;;;;;;10.07;4.13;;;;;;;;;;5131880;27;20955;-85
2021/10/24 10:27:39;;;;;;;5.20;3.70;;;;;;;;;;5122127;27;20453;-87
2021/10/24 10:30:09;;;;;;;5.40;3.63;;;;;;;;;;5104249;28;20427;-83
2021/10/24 10:32:37;;;;;;;4.63;3.57;;;;;;;;;;5113728;27;20458;-83
2021/10/24 10:35:07;;;;;;;5.47;3.23;;;;;;;;;;5131633;27;20441;-84
2021/10/24 10:37:42;;;;;;;6.63;3.80;;;;;;;;;;5122830;27;20469;-82
2021/10/24 10:40:13;;;;;;;5.60;3.57;;;;;;;;;;5104531;27;20513;-84
2021/10/24 10:42:55;;;;;;;7.83;3.43;;;;;;;;;;5123716;27;20932;-83
2021/10/24 10:45:26;;;;;;;3.63;2.70;;;;;;;;;;5103685;28;20435;-81
2021/10/24 10:47:54;;;;;;;4.67;3.33;;;;;;;;;;5103779;28;20450;-81
2021/10/24 10:50:39;;;;;;;4.20;3.27;;;;;;;;;;5109568;28;20434;-83
2021/10/24 10:53:07;;;;;;;6.00;4.10;;;;;;;;;;5120208;27;20494;-79
2021/10/24 10:55:49;;;;;;;5.40;3.60;;;;;;;;;;5130240;27;20433;-81
2021/10/24 10:58:31;;;;;;;4.80;3.23;;;;;;;;;;5119360;27;20462;-83
2021/10/24 11:01:00;;;;;;;6.30;3.70;;;;;;;;;;5103628;28;20517;-80
2021/10/24 11:03:42;;;;;;;7.67;3.10;;;;;;;;;;5099669;28;20470;-82
2021/10/24 11:06:10;;;;;;;4.77;3.50;;;;;;;;;;5089137;28;20443;-84
2021/10/24 11:08:52;;;;;;;5.70;3.20;;;;;;;;;;5094653;28;20449;-80
2021/10/24 11:11:34;;;;;;;5.10;2.90;;;;;;;;;;5124966;28;20453;-82
2021/10/24 11:14:02;;;;;;;5.80;3.10;;;;;;;;;;5109390;28;20835;-81
2021/10/24 11:16:44;;;;;;;6.13;3.43;;;;;;;;;;5115761;27;21011;-86
2021/10/24 11:19:26;;;;;;;4.57;3.43;;;;;;;;;;5122862;27;20492;-85
2021/10/24 11:21:55;;;;;;;6.20;3.30;;;;;;;;;;5110264;27;20471;-79
2021/10/24 11:24:23;;;;;;;6.57;3.60;;;;;;;;;;5108352;28;20458;-81
2021/10/24 11:26:54;;;;;;;4.77;2.63;;;;;;;;;;5109346;28;20453;-81
2021/10/24 11:29:21;;;;;;;6.30;3.03;;;;;;;;;;5135207;27;20948;-80
2021/10/24 11:31:48;;;;;;;4.13;3.10;;;;;;;;;;5129579;27;20463;-81
2021/10/24 11:34:30;;;;;;;4.33;2.93;;;;;;;;;;5108834;27;21562;-80
2021/10/24 11:36:59;;;;;;;6.20;3.73;;;;;;;;;;5126069;27;20438;-84
2021/10/24 11:39:26;;;;;;;4.00;2.83;;;;;;;;;;5117329;28;20477;-80
2021/10/24 11:42:06;;;;;;;5.93;3.00;;;;;;;;;;5123636;27;20461;-83
2021/10/24 11:44:36;;;;;;;4.70;2.90;;;;;;;;;;5126074;27;21006;-82
2021/10/24 11:47:07;;;;;;;5.57;3.47;;;;;;;;;;5100907;27;20462;-85
2021/10/24 11:49:43;;;;;;;3.40;2.57;;;;;;;;;;5112545;28;20434;-84
2021/10/24 11:52:21;;;;;;;5.13;3.00;;;;;;;;;;5111546;27;20526;-80
2021/10/24 11:54:59;;;;;;;2.60;2.40;;;;;;;;;;5110717;27;20863;-84
2021/10/24 11:57:35;;;;;;;4.10;3.00;;;;;;;;;;5122289;27;20445;-82
2021/10/24 12:00:18;;;;;;;5.93;3.00;;;;;;;;;;5118973;27;20478;-85
2021/10/24 12:02:55;;;;;;;11.40;3.67;;;;;;;;;;5112277;27;20527;-85
2021/10/24 12:05:22;;;;;;;8.93;2.93;;;;;;;;;;5101119;27;20536;-82
2021/10/24 12:07:52;;;;;;;5.20;3.37;;;;;;;;;;5106033;28;20532;-81
2021/10/24 12:10:20;;;;;;;5.83;3.30;;;;;;;;;;5111801;28;20507;-79
2021/10/24 12:12:47;;;;;;;4.57;3.30;;;;;;;;;;5109452;27;20512;-83
2021/10/24 12:15:15;;;;;;;4.27;3.10;;;;;;;;;;5109679;27;20442;-81
2021/10/24 12:17:43;;;;;;;5.60;2.83;;;;;;;;;;5109917;27;20811;-84
2021/10/24 12:20:13;;;;;;;5.90;3.03;;;;;;;;;;5113477;27;20471;-83
2021/10/24 12:22:42;;;;;;;3.23;2.93;;;;;;;;;;5103587;28;20469;-85
2021/10/24 12:25:16;;;;;;;7.77;3.43;;;;;;;;;;5118350;27;20465;-80
2021/10/24 12:27:45;;;;;;;5.57;3.20;;;;;;;;;;5127923;27;21114;-82
2021/10/24 12:30:13;;;;;;;4.70;2.80;;;;;;;;;;5114494;27;20549;-84
2021/10/24 12:32:54;;;;;;;3.80;3.00;;;;;;;;;;5133323;27;20452;-78
2021/10/24 12:35:21;;;;;;;3.80;3.10;;;;;;;;;;5106474;27;20462;-80
2021/10/24 12:37:57;;;;;;;3.07;2.50;;;;;;;;;;5104221;28;20444;-79
2021/10/24 12:40:27;;;;;;;6.53;2.77;;;;;;;;;;5112742;28;21019;-79
2021/10/24 12:43:09;;;;;;;6.40;2.50;;;;;;;;;;5098512;28;20463;-82
2021/10/24 12:45:44;;;;;;;5.40;2.93;;;;;;;;;;5112215;28;20920;-80
2021/10/24 12:48:12;;;;;;;3.67;2.60;;;;;;;;;;5112790;28;20438;-81
2021/10/24 12:50:39;;;;;;;3.50;3.10;;;;;;;;;;5095724;28;20486;-81
2021/10/24 12:53:08;;;;;;;5.30;2.63;;;;;;;;;;5106333;27;21111;-79
2021/10/24 12:55:36;;;;;;;4.50;2.90;;;;;;;;;;5114219;27;20452;-81
2021/10/24 12:58:04;;;;;;;3.60;2.40;;;;;;;;;;5107173;27;20431;-81
2021/10/24 13:00:32;;;;;;;7.93;3.00;;;;;;;;;;5102868;27;20785;-80
2021/10/24 13:02:59;;;;;;;3.50;2.80;;;;;;;;;;5091030;28;20998;-81
2021/10/24 13:05:28;;;;;;;4.10;2.73;;;;;;;;;;5092676;28;20446;-79
2021/10/24 13:07:56;;;;;;;3.87;2.90;;;;;;;;;;5117389;27;20503;-80
2021/10/24 13:10:23;;;;;;;6.83;3.00;;;;;;;;;;5112838;28;20461;-82
2021/10/24 13:12:51;;;;;;;4.70;2.60;;;;;;;;;;5111542;27;20474;-83
2021/10/24 13:15:19;;;;;;;4.13;2.50;;;;;;;;;;5124908;27;20446;-80
2021/10/24 13:17:46;;;;;;;5.00;3.13;;;;;;;;;;5135505;27;20446;-79
2021/10/24 13:20:13;;;;;;;6.47;2.83;;;;;;;;;;5105991;27;21216;-79
2021/10/24 13:25:22;;;;;;;4.20;2.93;;;;;;;;;;5105628;27;20455;-81
2021/10/24 13:27:49;;;;;;;5.07;3.13;;;;;;;;;;5127529;27;20544;-76
2021/10/24 13:30:18;;;;;;;4.07;2.63;;;;;;;;;;5125570;27;20460;-80
2021/10/24 13:32:45;;;;;;;4.77;3.20;;;;;;;;;;5120229;27;20483;-79
2021/10/24 13:35:12;;;;;;;3.87;2.77;;;;;;;;;;5109183;27;20455;-81
2021/10/24 13:37:39;;;;;;;3.10;2.80;;;;;;;;;;5100274;28;20811;-80
2021/10/24 13:40:07;;;;;;;5.70;3.40;;;;;;;;;;5091293;28;20475;-80
2021/10/24 13:42:34;;;;;;;6.40;3.00;;;;;;;;;;5096223;27;20466;-78
2021/10/24 13:45:02;;;;;;;5.83;3.23;;;;;;;;;;5121905;27;20453;-80
2021/10/24 13:47:30;;;;;;;3.53;2.90;;;;;;;;;;5132440;27;20448;-79
2021/10/24 13:49:57;;;;;;;5.37;2.80;;;;;;;;;;5105946;27;20459;-81
2021/10/24 13:52:25;;;;;;;4.10;3.30;;;;;;;;;;5099118;28;20432;-79
2021/10/24 13:54:52;;;;;;;4.07;3.20;;;;;;;;;;5109163;28;20478;-82
2021/10/24 13:57:19;;;;;;;7.43;3.57;;;;;;;;;;5106097;27;20454;-80
2021/10/24 13:59:49;;;;;;;6.40;3.23;;;;;;;;;;5131982;27;21014;-78
2021/10/24 14:02:16;;;;;;;3.63;2.70;;;;;;;;;;5131288;27;20469;-80
2021/10/24 14:04:45;;;;;;;5.10;3.50;;;;;;;;;;5099126;27;20487;-81
2021/10/24 14:07:12;;;;;;;5.33;2.87;;;;;;;;;;5099604;28;20486;-84
2021/10/24 14:09:40;;;;;;;3.83;2.93;;;;;;;;;;5108391;28;20807;-82
2021/10/24 14:12:07;;;;;;;4.70;2.90;;;;;;;;;;5110727;27;20458;-83
2021/10/24 14:14:35;;;;;;;3.10;2.43;;;;;;;;;;5124473;27;20454;-81
2021/10/24 14:17:02;;;;;;;4.73;3.00;;;;;;;;;;5108331;27;20867;-81
2021/10/24 14:19:29;;;;;;;5.03;3.40;;;;;;;;;;5107806;27;20806;-83
2021/10/24 14:21:58;;;;;;;4.03;2.70;;;;;;;;;;5098480;28;20432;-82
2021/10/24 14:24:25;;;;;;;5.67;2.70;;;;;;;;;;5103598;27;20827;-82
2021/10/24 14:26:52;;;;;;;5.50;3.40;;;;;;;;;;5127412;27;20455;-79
2021/10/24 14:29:20;;;;;;;3.40;2.83;;;;;;;;;;5127087;27;20435;-81
2021/10/24 14:31:47;;;;;;;6.93;3.10;;;;;;;;;;5109030;28;20497;-82
2021/10/24 14:34:14;;;;;;;4.27;2.60;;;;;;;;;;5120305;27;20485;-80
2021/10/24 14:36:41;;;;;;;8.60;3.20;;;;;;;;;;5097793;27;20459;-77
2021/10/24 14:39:12;;;;;;;4.23;3.10;;;;;;;;;;5101807;27;20454;-79
2021/10/24 14:41:39;;;;;;;4.10;3.30;;;;;;;;;;5128518;27;20509;-79
2021/10/24 14:44:07;;;;;;;6.40;3.27;;;;;;;;;;5109877;28;20459;-79